createdAt,value
2023-05-05T00:03:05.382Z,101182.40
2023-05-05T00:08:04.587Z,101176.20
2023-05-05T00:13:04.234Z,101171.20
2023-05-05T00:18:03.252Z,101178.60
2023-05-05T00:23:02.910Z,101179.80
2023-05-05T00:28:02.473Z,101171.60
2023-05-05T00:33:02.198Z,101169.80
2023-05-05T00:38:01.202Z,101170.40
2023-05-05T00:43:01.384Z,101181.20
2023-05-05T00:48:03.023Z,101171.80
2023-05-05T00:53:07.160Z,101178.20
2023-05-05T00:58:07.463Z,101178.20
2023-05-05T01:03:07.246Z,101176.20
2023-05-05T01:08:25.279Z,101177.60
2023-05-05T01:13:39.683Z,101174.00
2023-05-05T01:18:49.266Z,101171.80
2023-05-05T01:24:13.708Z,101157.80
2023-05-05T01:30:01.020Z,101163.20
2023-05-05T01:35:11.477Z,101156.00
2023-05-05T01:40:14.296Z,101163.80
2023-05-05T01:45:19.365Z,101157.60
2023-05-05T01:50:21.012Z,101146.40
2023-05-05T01:55:26.594Z,101151.40
2023-05-05T02:00:28.815Z,101149.80
2023-05-05T02:05:30.506Z,101151.80
2023-05-05T02:10:30.230Z,101144.80
2023-05-05T02:15:31.710Z,101143.20
2023-05-05T02:20:34.567Z,101136.80
2023-05-05T02:25:44.572Z,101136.40
2023-05-05T02:30:45.804Z,101128.20
2023-05-05T02:35:51.612Z,101131.60
2023-05-05T02:40:56.430Z,101128.80
2023-05-05T02:45:55.800Z,101127.00
2023-05-05T02:50:55.691Z,101116.80
2023-05-05T02:56:16.452Z,101121.00
2023-05-05T03:01:34.964Z,101122.40
2023-05-05T03:06:41.781Z,101121.60
2023-05-05T03:11:49.087Z,101121.00
2023-05-05T03:16:50.866Z,101123.00
2023-05-05T03:21:50.983Z,101125.80
2023-05-05T03:26:51.732Z,101122.20
2023-05-05T03:31:52.413Z,101125.00
2023-05-05T03:36:51.384Z,101125.20
2023-05-05T03:41:52.814Z,101128.80
2023-05-05T03:46:52.516Z,101133.60
2023-05-05T03:51:52.628Z,101143.00
2023-05-05T03:56:52.029Z,101153.20
2023-05-05T04:01:50.948Z,101160.00
2023-05-05T04:06:50.237Z,101165.00
2023-05-05T04:11:49.922Z,101169.80
2023-05-05T04:16:50.346Z,101168.80
2023-05-05T04:21:49.397Z,101172.60
2023-05-05T04:26:48.299Z,101180.80
2023-05-05T04:31:48.140Z,101187.00
2023-05-05T04:36:47.817Z,101194.00
2023-05-05T04:41:47.998Z,101197.20
2023-05-05T04:46:48.128Z,101199.60
2023-05-05T04:51:51.263Z,101210.40
2023-05-05T04:56:50.636Z,101212.60
2023-05-05T05:01:53.209Z,101215.40
2023-05-05T05:06:53.065Z,101212.20
2023-05-05T05:11:52.799Z,101218.80
2023-05-05T05:16:52.866Z,101220.40
2023-05-05T05:21:52.616Z,101221.40
2023-05-05T05:26:51.970Z,101223.00
2023-05-05T05:31:51.807Z,101224.20
2023-05-05T05:36:51.270Z,101224.40
2023-05-05T05:41:51.897Z,101221.80
2023-05-05T05:46:51.159Z,101223.00
2023-05-05T05:51:50.674Z,101221.00
2023-05-05T05:56:50.713Z,101230.00
2023-05-05T06:01:50.805Z,101233.40
2023-05-05T06:06:50.940Z,101232.60
2023-05-05T06:11:50.156Z,101234.60
2023-05-05T06:16:49.529Z,101235.00
2023-05-05T06:21:51.017Z,101237.00
2023-05-05T06:26:50.343Z,101238.20
2023-05-05T06:31:49.463Z,101237.80
2023-05-05T06:36:49.200Z,101238.40
2023-05-05T06:41:48.390Z,101247.60
2023-05-05T06:46:48.089Z,101250.20
2023-05-05T06:51:47.333Z,101258.00
2023-05-05T06:56:46.277Z,101261.40
2023-05-05T07:01:45.172Z,101260.80
2023-05-05T07:06:44.581Z,101261.40
2023-05-05T07:11:44.455Z,101256.00
2023-05-05T07:16:45.256Z,101261.60
2023-05-05T07:21:45.188Z,101259.40
2023-05-05T07:26:44.501Z,101265.60
2023-05-05T07:31:43.435Z,101272.40
2023-05-05T07:36:43.112Z,101272.20
2023-05-05T07:41:42.722Z,101270.60
2023-05-05T07:46:44.740Z,101267.20
2023-05-05T07:51:45.047Z,101277.60
2023-05-05T07:56:43.766Z,101276.20
2023-05-05T08:01:43.728Z,101272.80
2023-05-05T08:06:43.242Z,101268.80
2023-05-05T08:11:42.798Z,101279.00
2023-05-05T08:16:42.748Z,101269.80
2023-05-05T08:21:41.979Z,101270.40
2023-05-05T08:26:44.365Z,101278.60
2023-05-05T08:31:43.838Z,101281.20
2023-05-05T08:36:43.356Z,101285.20
2023-05-05T08:41:43.148Z,101285.20
2023-05-05T08:46:44.497Z,101288.00
2023-05-05T08:51:48.145Z,101289.60
2023-05-05T08:56:51.651Z,101292.00
2023-05-05T09:01:55.059Z,101285.80
2023-05-05T09:07:01.374Z,101286.80
2023-05-05T09:12:19.947Z,101291.40
2023-05-05T09:17:34.418Z,101297.80
2023-05-05T09:22:51.600Z,101300.20
2023-05-05T09:27:55.284Z,101301.00
2023-05-05T09:33:11.808Z,101303.20
2023-05-05T09:38:25.806Z,101304.20
2023-05-05T09:43:53.873Z,101304.40
2023-05-05T09:48:57.058Z,101301.40
2023-05-05T09:54:07.731Z,101308.80
2023-05-05T09:59:16.690Z,101302.00
2023-05-05T10:04:37.162Z,101311.40
2023-05-05T10:09:46.740Z,101306.20
2023-05-05T10:14:57.300Z,101309.00
2023-05-05T10:20:14.501Z,101306.00
2023-05-05T10:25:19.742Z,101310.80
2023-05-05T10:30:25.590Z,101313.80
2023-05-05T10:35:28.205Z,101308.20
2023-05-05T10:40:29.497Z,101312.20
2023-05-05T10:45:29.150Z,101309.00
2023-05-05T10:50:39.304Z,101312.80
2023-05-05T10:55:50.052Z,101308.60
2023-05-05T11:00:56.365Z,101316.00
2023-05-05T11:06:14.557Z,101312.60
2023-05-05T11:11:15.493Z,101310.20
2023-05-05T11:16:49.977Z,101310.20
2023-05-05T11:27:16.156Z,101312.00
2023-05-05T11:32:20.223Z,101308.60
2023-05-05T11:37:24.232Z,101305.60
2023-05-05T11:42:30.356Z,101310.40
2023-05-05T11:47:39.124Z,101308.00
2023-05-05T11:52:38.334Z,101307.80
2023-05-05T11:57:38.071Z,101304.20
2023-05-05T12:02:38.727Z,101310.20
2023-05-05T12:07:45.833Z,101302.80
2023-05-05T12:12:55.305Z,101295.80
2023-05-05T12:17:59.529Z,101298.00
2023-05-05T12:23:05.396Z,101297.40
2023-05-05T12:28:05.952Z,101296.80
2023-05-05T12:33:09.792Z,101297.20
2023-05-05T12:38:08.525Z,101300.00
2023-05-05T12:43:07.515Z,101297.40
2023-05-05T12:48:24.485Z,101307.80
2023-05-05T12:53:28.065Z,101312.60
2023-05-05T12:58:29.333Z,101315.40
2023-05-05T13:03:28.837Z,101318.40
2023-05-05T13:08:44.925Z,101318.00
2023-05-05T13:13:43.967Z,101321.80
2023-05-05T13:18:51.320Z,101320.80
2023-05-05T13:23:50.556Z,101314.40
2023-05-05T13:28:50.385Z,101315.20
2023-05-05T13:33:49.385Z,101316.40
2023-05-05T13:38:49.089Z,101308.80
2023-05-05T13:43:48.987Z,101303.00
2023-05-05T13:48:49.163Z,101307.60
2023-05-05T13:53:51.147Z,101304.60
2023-05-05T13:58:50.476Z,101298.80
2023-05-05T14:03:49.970Z,101303.40
2023-05-05T14:08:49.113Z,101302.40
2023-05-05T14:13:49.054Z,101298.60
2023-05-05T14:18:48.292Z,101288.00
2023-05-05T14:23:47.414Z,101285.40
2023-05-05T14:28:49.584Z,101291.60
2023-05-05T14:33:49.433Z,101294.00
2023-05-05T14:38:48.938Z,101292.40
2023-05-05T14:43:49.422Z,101289.80
2023-05-05T14:48:48.907Z,101283.00
2023-05-05T14:53:47.932Z,101286.00
2023-05-05T14:58:48.274Z,101289.40
2023-05-05T15:03:48.331Z,101282.20
2023-05-05T15:08:47.794Z,101291.00
2023-05-05T15:13:47.134Z,101300.20
2023-05-05T15:18:46.192Z,101297.60
2023-05-05T15:23:45.686Z,101296.20
2023-05-05T15:28:44.710Z,101304.80
2023-05-05T15:33:45.762Z,101319.40
2023-05-05T15:38:46.796Z,101326.40
2023-05-05T15:43:45.577Z,101330.00
2023-05-05T15:48:44.424Z,101335.40
2023-05-05T15:53:43.263Z,101338.00
2023-05-05T15:58:41.709Z,101339.80
2023-05-05T16:03:41.575Z,101344.00
2023-05-05T16:08:41.708Z,101339.60
2023-05-05T16:13:40.940Z,101328.40
2023-05-05T16:18:40.092Z,101329.40
2023-05-05T16:23:39.659Z,101333.00
2023-05-05T16:28:39.911Z,101331.60
2023-05-05T16:33:41.452Z,101330.80
2023-05-05T16:38:40.788Z,101332.80
2023-05-05T16:43:41.893Z,101334.20
2023-05-05T16:48:41.209Z,101320.60
2023-05-05T16:53:41.550Z,101317.40
2023-05-05T16:58:42.601Z,101313.40
2023-05-05T17:03:44.202Z,101316.00
2023-05-05T17:08:43.499Z,101320.60
2023-05-05T17:13:43.727Z,101322.80
2023-05-05T17:18:42.831Z,101324.40
2023-05-05T17:23:42.589Z,101327.40
2023-05-05T17:28:42.120Z,101323.80
2023-05-05T17:33:41.395Z,101317.20
2023-05-05T17:38:40.767Z,101314.00
2023-05-05T17:43:39.829Z,101312.60
2023-05-05T17:48:39.615Z,101309.40
2023-05-05T17:53:38.730Z,101321.60
2023-05-05T17:58:38.491Z,101320.80
2023-05-05T18:03:40.052Z,101326.00
2023-05-05T18:08:40.085Z,101325.00
2023-05-05T18:13:38.941Z,101326.00
2023-05-05T18:18:38.872Z,101325.80
2023-05-05T18:23:38.499Z,101322.20
2023-05-05T18:28:39.457Z,101329.40
2023-05-05T18:33:38.990Z,101331.00
2023-05-05T18:38:38.638Z,101335.60
2023-05-05T18:43:40.100Z,101336.60
2023-05-05T18:48:39.181Z,101343.00
2023-05-05T18:53:38.046Z,101337.00
2023-05-05T18:58:37.482Z,101342.20
2023-05-05T19:03:37.684Z,101333.00
2023-05-05T19:08:37.290Z,101339.40
2023-05-05T19:18:39.274Z,101347.00
2023-05-05T19:23:39.108Z,101344.80
2023-05-05T19:28:38.012Z,101342.40
2023-05-05T19:33:37.851Z,101338.80
2023-05-05T19:38:37.200Z,101342.00
2023-05-05T19:43:36.744Z,101337.00
2023-05-05T19:48:36.125Z,101336.00
2023-05-05T19:53:36.054Z,101337.00
2023-05-05T19:58:57.547Z,101338.00
2023-05-05T20:03:59.794Z,101343.40
2023-05-05T20:08:59.004Z,101340.40
2023-05-05T20:13:58.468Z,101341.40
2023-05-05T20:18:58.031Z,101340.00
2023-05-05T20:23:57.542Z,101338.60
2023-05-05T20:28:56.771Z,101330.40
2023-05-05T20:33:56.611Z,101334.20
2023-05-05T20:38:55.408Z,101338.20
2023-05-05T20:43:57.416Z,101332.00
2023-05-05T20:48:56.871Z,101329.40
2023-05-05T20:53:56.542Z,101331.40
2023-05-05T20:58:56.696Z,101338.80
2023-05-05T21:03:55.817Z,101346.40
2023-05-05T21:08:56.546Z,101345.80
2023-05-05T21:13:55.967Z,101346.20
2023-05-05T21:18:55.509Z,101350.00
2023-05-05T21:23:55.487Z,101338.80
2023-05-05T21:28:55.704Z,101338.00
2023-05-05T21:33:55.917Z,101349.60
2023-05-05T21:38:58.409Z,101350.60
2023-05-05T21:43:59.200Z,101348.20
2023-05-05T21:48:58.976Z,101340.00
2023-05-05T21:53:58.998Z,101338.20
2023-05-05T21:58:58.310Z,101344.00
2023-05-05T22:03:57.716Z,101342.00
2023-05-05T22:08:57.788Z,101345.40
2023-05-05T22:13:58.907Z,101343.00
2023-05-05T22:19:01.886Z,101334.60
2023-05-05T22:24:01.062Z,101337.60
2023-05-05T22:29:00.995Z,101331.00
2023-05-05T22:34:00.539Z,101332.60
2023-05-05T22:39:01.518Z,101336.20
2023-05-05T22:44:00.789Z,101332.60
2023-05-05T22:49:00.279Z,101318.40
2023-05-05T22:53:59.836Z,101324.40
2023-05-05T22:59:01.689Z,101325.20
2023-05-05T23:04:01.135Z,101319.00
2023-05-05T23:09:02.400Z,101317.80
2023-05-05T23:14:01.585Z,101319.20
2023-05-05T23:19:04.038Z,101319.80
2023-05-05T23:24:26.719Z,101315.80
2023-05-05T23:29:26.537Z,101315.80
2023-05-05T23:34:28.460Z,101311.60
2023-05-05T23:39:27.988Z,101306.60
2023-05-05T23:44:27.852Z,101295.60
2023-05-05T23:49:27.235Z,101289.00
2023-05-05T23:54:26.391Z,101295.40
2023-05-05T23:59:26.049Z,101296.20
